VOZ1481 YPPH-YBRM
Flight info
| Callsign | VOZ1481 |
|---|---|
| Flight time | 2h 10m |
| Altitude | 37000 |
| Route | AMANA Y31 BRM |
| Aircraft | B738/M-SDE2E3FGHIRWXY/LB1 |
Departure
| Time | 2026-05-06 19:13 |
|---|---|
| Airport | Perth International Airport (YPPH) |
Arrival
| Time | 2026-05-06 21:23 |
|---|---|
| Airport | Broome International Airport (YBRM) |
| Time | Latitude | Longitude | Altitude | Speed | Heading |
|---|---|---|---|---|---|
| 2026-05-06 18:29 | -31.94156 | 115.97010 | 67 ft | 0 kts | 14° |
| 2026-05-06 19:02 | -31.94159 | 115.97009 | 67 ft | 3 kts | 14° |
| 2026-05-06 19:02 | -31.94185 | 115.97001 | 57 ft | 4 kts | 22° |
| 2026-05-06 19:02 | -31.94207 | 115.96985 | 57 ft | 4 kts | 56° |
| 2026-05-06 19:02 | -31.94211 | 115.96962 | 59 ft | 4 kts | 103° |
| 2026-05-06 19:03 | -31.94204 | 115.96932 | 60 ft | 4 kts | 105° |
| 2026-05-06 19:03 | -31.94201 | 115.96918 | 58 ft | 0 kts | 104° |
| 2026-05-06 19:05 | -31.94202 | 115.96919 | 58 ft | 2 kts | 104° |
| 2026-05-06 19:05 | -31.94220 | 115.97002 | 60 ft | 13 kts | 110° |
| 2026-05-06 19:06 | -31.94299 | 115.97024 | 63 ft | 13 kts | 194° |
| 2026-05-06 19:06 | -31.94370 | 115.96975 | 64 ft | 13 kts | 258° |
| 2026-05-06 19:06 | -31.94354 | 115.96872 | 62 ft | 13 kts | 284° |
| 2026-05-06 19:06 | -31.94345 | 115.96774 | 64 ft | 12 kts | 233° |
| 2026-05-06 19:07 | -31.94445 | 115.96735 | 59 ft | 17 kts | 193° |
| 2026-05-06 19:07 | -31.94558 | 115.96703 | 62 ft | 18 kts | 193° |
| 2026-05-06 19:07 | -31.94684 | 115.96664 | 67 ft | 18 kts | 193° |
| 2026-05-06 19:07 | -31.94807 | 115.96631 | 61 ft | 18 kts | 193° |
| 2026-05-06 19:08 | -31.94926 | 115.96596 | 64 ft | 17 kts | 194° |
| 2026-05-06 19:08 | -31.95040 | 115.96563 | 63 ft | 17 kts | 194° |
| 2026-05-06 19:08 | -31.95149 | 115.96531 | 63 ft | 18 kts | 194° |
| 2026-05-06 19:08 | -31.95279 | 115.96494 | 62 ft | 19 kts | 193° |
| 2026-05-06 19:09 | -31.95403 | 115.96457 | 63 ft | 18 kts | 194° |
| 2026-05-06 19:09 | -31.95524 | 115.96422 | 60 ft | 18 kts | 193° |
| 2026-05-06 19:09 | -31.95640 | 115.96389 | 62 ft | 17 kts | 195° |
| 2026-05-06 19:09 | -31.95752 | 115.96355 | 59 ft | 16 kts | 194° |
| 2026-05-06 19:10 | -31.95861 | 115.96324 | 62 ft | 16 kts | 193° |
| 2026-05-06 19:10 | -31.95921 | 115.96239 | 67 ft | 15 kts | 281° |
| 2026-05-06 19:10 | -31.95904 | 115.96158 | 66 ft | 0 kts | 284° |
| 2026-05-06 19:12 | -31.95891 | 115.96096 | 62 ft | 15 kts | 284° |
| 2026-05-06 19:12 | -31.95847 | 115.95986 | 60 ft | 16 kts | 340° |
| 2026-05-06 19:12 | -31.95734 | 115.96010 | 63 ft | 23 kts | 14° |
| 2026-05-06 19:12 | -31.95373 | 115.96114 | 64 ft | 91 kts | 14° |
| 2026-05-06 19:13 | -31.94530 | 115.96362 | 68 ft | 154 kts | 14° |
| 2026-05-06 19:13 | -31.93426 | 115.96648 | 617 ft | 166 kts | 16° |
| 2026-05-06 19:13 | -31.92329 | 115.96964 | 1605 ft | 155 kts | 20° |
| 2026-05-06 19:13 | -31.91256 | 115.97282 | 2332 ft | 171 kts | 21° |
| 2026-05-06 19:14 | -31.90032 | 115.97642 | 2801 ft | 187 kts | 20° |
| 2026-05-06 19:14 | -31.88705 | 115.98019 | 3343 ft | 198 kts | 19° |
| 2026-05-06 19:14 | -31.87424 | 115.98630 | 3856 ft | 204 kts | 41° |
| 2026-05-06 19:14 | -31.86555 | 116.00017 | 4303 ft | 224 kts | 69° |
| 2026-05-06 19:15 | -31.86314 | 116.01256 | 4535 ft | 241 kts | 83° |
| 2026-05-06 19:15 | -31.86145 | 116.03942 | 5479 ft | 255 kts | 85° |
| 2026-05-06 19:15 | -31.86016 | 116.06082 | 6236 ft | 264 kts | 86° |
| 2026-05-06 19:15 | -31.85881 | 116.08266 | 7042 ft | 270 kts | 88° |
| 2026-05-06 19:16 | -31.85740 | 116.10503 | 7844 ft | 275 kts | 87° |
| 2026-05-06 19:16 | -31.85584 | 116.12787 | 8726 ft | 277 kts | 85° |
| 2026-05-06 19:16 | -31.85245 | 116.15036 | 9582 ft | 281 kts | 79° |
| 2026-05-06 19:16 | -31.84798 | 116.17291 | 10385 ft | 287 kts | 77° |
| 2026-05-06 19:17 | -31.84315 | 116.19638 | 10645 ft | 310 kts | 78° |
| 2026-05-06 19:17 | -31.83794 | 116.22194 | 10903 ft | 331 kts | 78° |
| 2026-05-06 19:17 | -31.83253 | 116.24883 | 11528 ft | 338 kts | 78° |
| 2026-05-06 19:17 | -31.82713 | 116.27597 | 12327 ft | 341 kts | 78° |
| 2026-05-06 19:18 | -31.82181 | 116.30303 | 13065 ft | 346 kts | 78° |
| 2026-05-06 19:18 | -31.81635 | 116.33089 | 13891 ft | 349 kts | 78° |
| 2026-05-06 19:18 | -31.81091 | 116.35868 | 14621 ft | 354 kts | 78° |
| 2026-05-06 19:18 | -31.80537 | 116.38710 | 15401 ft | 356 kts | 78° |
| 2026-05-06 19:19 | -31.79978 | 116.41575 | 16216 ft | 359 kts | 78° |
| 2026-05-06 19:19 | -31.79419 | 116.44436 | 16923 ft | 364 kts | 78° |
| 2026-05-06 19:19 | -31.78849 | 116.47356 | 17712 ft | 367 kts | 78° |
| 2026-05-06 19:19 | -31.78273 | 116.50300 | 18472 ft | 370 kts | 78° |
| 2026-05-06 19:20 | -31.77698 | 116.53240 | 19140 ft | 374 kts | 78° |
| 2026-05-06 19:20 | -31.77109 | 116.56243 | 19744 ft | 378 kts | 78° |
| 2026-05-06 19:20 | -31.76513 | 116.59275 | 20408 ft | 381 kts | 78° |
| 2026-05-06 19:20 | -31.75790 | 116.62254 | 20990 ft | 387 kts | 67° |
| 2026-05-06 19:21 | -31.74295 | 116.64920 | 21570 ft | 394 kts | 50° |
| 2026-05-06 19:21 | -31.72400 | 116.67286 | 22182 ft | 398 kts | 47° |
| 2026-05-06 19:21 | -31.70444 | 116.69620 | 22741 ft | 403 kts | 47° |
| 2026-05-06 19:21 | -31.68464 | 116.71980 | 23295 ft | 407 kts | 47° |
| 2026-05-06 19:22 | -31.66497 | 116.74348 | 23838 ft | 411 kts | 47° |
| 2026-05-06 19:22 | -31.64500 | 116.76777 | 24337 ft | 414 kts | 47° |
| 2026-05-06 19:22 | -31.62491 | 116.79236 | 24819 ft | 417 kts | 47° |
| 2026-05-06 19:22 | -31.61155 | 116.80874 | 25142 ft | 419 kts | 47° |
| 2026-05-06 19:23 | -31.58462 | 116.84174 | 25765 ft | 423 kts | 47° |
| 2026-05-06 19:23 | -31.56307 | 116.86510 | 26191 ft | 427 kts | 38° |
| 2026-05-06 19:23 | -31.53789 | 116.88412 | 26661 ft | 431 kts | 29° |
| 2026-05-06 19:23 | -31.51019 | 116.89810 | 27123 ft | 435 kts | 20° |
| 2026-05-06 19:24 | -31.48162 | 116.90980 | 27539 ft | 438 kts | 20° |
| 2026-05-06 19:24 | -31.46239 | 116.91746 | 27739 ft | 442 kts | 19° |
| 2026-05-06 19:24 | -31.43303 | 116.92911 | 28033 ft | 448 kts | 19° |
| 2026-05-06 19:24 | -31.40347 | 116.94094 | 28557 ft | 447 kts | 19° |
| 2026-05-06 19:25 | -31.37394 | 116.95289 | 28944 ft | 450 kts | 20° |
| 2026-05-06 19:25 | -31.34421 | 116.96502 | 29261 ft | 455 kts | 20° |
| 2026-05-06 19:25 | -31.31396 | 116.97744 | 29643 ft | 457 kts | 20° |
| 2026-05-06 19:25 | -31.28424 | 116.98967 | 30042 ft | 459 kts | 20° |
| 2026-05-06 19:26 | -31.25401 | 117.00212 | 30376 ft | 462 kts | 20° |
| 2026-05-06 19:26 | -31.22355 | 117.01466 | 30701 ft | 465 kts | 20° |
| 2026-05-06 19:26 | -31.19288 | 117.02728 | 30976 ft | 467 kts | 19° |
| 2026-05-06 19:26 | -31.16216 | 117.03990 | 31305 ft | 468 kts | 19° |
| 2026-05-06 19:27 | -31.13147 | 117.05250 | 31758 ft | 466 kts | 19° |
| 2026-05-06 19:27 | -31.10082 | 117.06506 | 32149 ft | 466 kts | 19° |
| 2026-05-06 19:27 | -31.07022 | 117.07761 | 32521 ft | 466 kts | 19° |
| 2026-05-06 19:27 | -31.03996 | 117.09000 | 32904 ft | 465 kts | 19° |
| 2026-05-06 19:28 | -31.00940 | 117.10251 | 33287 ft | 465 kts | 19° |
| 2026-05-06 19:28 | -30.97883 | 117.11501 | 33659 ft | 465 kts | 19° |
| 2026-05-06 19:28 | -30.94833 | 117.12748 | 34026 ft | 465 kts | 19° |
| 2026-05-06 19:28 | -30.91776 | 117.13997 | 34377 ft | 465 kts | 19° |
| 2026-05-06 19:29 | -30.88720 | 117.15245 | 34649 ft | 465 kts | 19° |
| 2026-05-06 19:29 | -30.85649 | 117.16497 | 34909 ft | 467 kts | 19° |
| 2026-05-06 19:29 | -30.82593 | 117.17796 | 35187 ft | 467 kts | 20° |
| 2026-05-06 19:29 | -30.79564 | 117.19177 | 35491 ft | 467 kts | 21° |
| 2026-05-06 19:30 | -30.76553 | 117.20591 | 35750 ft | 468 kts | 21° |
| 2026-05-06 19:30 | -30.73533 | 117.22017 | 35970 ft | 469 kts | 21° |
| 2026-05-06 19:30 | -30.70537 | 117.23425 | 36220 ft | 470 kts | 21° |
| 2026-05-06 19:30 | -30.67500 | 117.24842 | 36492 ft | 470 kts | 21° |
| 2026-05-06 19:31 | -30.64457 | 117.26251 | 36723 ft | 471 kts | 21° |
| 2026-05-06 19:31 | -30.61403 | 117.27660 | 36904 ft | 473 kts | 20° |
| 2026-05-06 19:31 | -30.55268 | 117.30477 | 37402 ft | 474 kts | 20° |
| 2026-05-06 19:32 | -30.49071 | 117.33317 | 37450 ft | 480 kts | 20° |
| 2026-05-06 19:32 | -30.42903 | 117.36143 | 37433 ft | 476 kts | 20° |
| 2026-05-06 19:33 | -30.36784 | 117.38943 | 37443 ft | 472 kts | 20° |
| 2026-05-06 19:33 | -30.30671 | 117.41736 | 37439 ft | 472 kts | 20° |
| 2026-05-06 19:34 | -30.24558 | 117.44525 | 37436 ft | 472 kts | 20° |
| 2026-05-06 19:34 | -30.18440 | 117.47313 | 37435 ft | 472 kts | 20° |
| 2026-05-06 19:35 | -30.12318 | 117.50099 | 37441 ft | 472 kts | 20° |
| 2026-05-06 19:35 | -30.06224 | 117.52869 | 37421 ft | 473 kts | 20° |
| 2026-05-06 19:36 | -30.00091 | 117.55653 | 37436 ft | 474 kts | 20° |
| 2026-05-06 19:36 | -29.93943 | 117.58439 | 37430 ft | 475 kts | 20° |
| 2026-05-06 19:37 | -29.87792 | 117.61225 | 37430 ft | 475 kts | 20° |
| 2026-05-06 19:37 | -29.81621 | 117.64015 | 37430 ft | 476 kts | 20° |
| 2026-05-06 19:38 | -29.75450 | 117.66801 | 37423 ft | 477 kts | 20° |
| 2026-05-06 19:38 | -29.69265 | 117.69591 | 37425 ft | 477 kts | 20° |
| 2026-05-06 19:39 | -29.63060 | 117.72388 | 37421 ft | 478 kts | 20° |
| 2026-05-06 19:39 | -29.56858 | 117.75180 | 37421 ft | 478 kts | 20° |
| 2026-05-06 19:40 | -29.50691 | 117.77952 | 37408 ft | 478 kts | 19° |
| 2026-05-06 19:40 | -29.44480 | 117.80740 | 37420 ft | 478 kts | 19° |
| 2026-05-06 19:41 | -29.38283 | 117.83519 | 37412 ft | 478 kts | 19° |
| 2026-05-06 19:41 | -29.32113 | 117.86282 | 37413 ft | 478 kts | 19° |
| 2026-05-06 19:42 | -29.25903 | 117.89059 | 37409 ft | 478 kts | 19° |
| 2026-05-06 19:42 | -29.19693 | 117.91832 | 37403 ft | 478 kts | 19° |
| 2026-05-06 19:43 | -29.13495 | 117.94597 | 37408 ft | 478 kts | 19° |
| 2026-05-06 19:43 | -29.07325 | 117.97345 | 37408 ft | 478 kts | 19° |
| 2026-05-06 19:44 | -29.01121 | 118.00105 | 37405 ft | 479 kts | 19° |
| 2026-05-06 19:44 | -28.94907 | 118.02866 | 37391 ft | 479 kts | 19° |
| 2026-05-06 19:45 | -28.88690 | 118.05625 | 37398 ft | 479 kts | 19° |
| 2026-05-06 19:45 | -28.82477 | 118.08378 | 37400 ft | 480 kts | 19° |
| 2026-05-06 19:46 | -28.76248 | 118.11135 | 37395 ft | 480 kts | 19° |
| 2026-05-06 19:46 | -28.70002 | 118.13895 | 37391 ft | 480 kts | 19° |
| 2026-05-06 19:47 | -28.63770 | 118.16647 | 37383 ft | 480 kts | 19° |
| 2026-05-06 19:47 | -28.57575 | 118.19378 | 37394 ft | 480 kts | 19° |
| 2026-05-06 19:48 | -28.51335 | 118.22126 | 37387 ft | 481 kts | 19° |
| 2026-05-06 19:48 | -28.45089 | 118.24873 | 37386 ft | 481 kts | 19° |
| 2026-05-06 19:49 | -28.38841 | 118.27617 | 37385 ft | 481 kts | 19° |
| 2026-05-06 19:49 | -28.32589 | 118.30360 | 37379 ft | 481 kts | 18° |
| 2026-05-06 19:50 | -28.26332 | 118.33101 | 37381 ft | 482 kts | 18° |
| 2026-05-06 19:50 | -28.20074 | 118.35840 | 37379 ft | 482 kts | 18° |
| 2026-05-06 19:51 | -28.13804 | 118.38580 | 37383 ft | 483 kts | 18° |
| 2026-05-06 19:51 | -28.07521 | 118.41323 | 37363 ft | 483 kts | 18° |
| 2026-05-06 19:52 | -28.01276 | 118.44046 | 37370 ft | 483 kts | 18° |
| 2026-05-06 19:52 | -27.94994 | 118.46780 | 37369 ft | 483 kts | 18° |
| 2026-05-06 19:53 | -27.88713 | 118.49508 | 37367 ft | 483 kts | 18° |
| 2026-05-06 19:53 | -27.82428 | 118.52236 | 37366 ft | 483 kts | 18° |
| 2026-05-06 19:54 | -27.76147 | 118.54960 | 37350 ft | 484 kts | 18° |
| 2026-05-06 19:54 | -27.69869 | 118.57678 | 37365 ft | 484 kts | 18° |
| 2026-05-06 19:55 | -27.63577 | 118.60399 | 37360 ft | 484 kts | 18° |
| 2026-05-06 19:55 | -27.57279 | 118.63120 | 37363 ft | 484 kts | 18° |
| 2026-05-06 19:56 | -27.50972 | 118.65842 | 37356 ft | 485 kts | 18° |
| 2026-05-06 19:56 | -27.44665 | 118.68560 | 37358 ft | 485 kts | 18° |
| 2026-05-06 19:57 | -27.38356 | 118.71275 | 37344 ft | 485 kts | 18° |
| 2026-05-06 19:57 | -27.32082 | 118.73973 | 37345 ft | 485 kts | 18° |
| 2026-05-06 19:58 | -27.25775 | 118.76681 | 37344 ft | 485 kts | 18° |
| 2026-05-06 19:58 | -27.19460 | 118.79389 | 37329 ft | 485 kts | 18° |
| 2026-05-06 19:59 | -27.13146 | 118.82094 | 37345 ft | 485 kts | 17° |
| 2026-05-06 19:59 | -27.06839 | 118.84792 | 37340 ft | 485 kts | 17° |
| 2026-05-06 20:00 | -27.00530 | 118.87487 | 37342 ft | 485 kts | 17° |
| 2026-05-06 20:00 | -26.94254 | 118.90166 | 37341 ft | 486 kts | 17° |
| 2026-05-06 20:01 | -26.87933 | 118.92861 | 37340 ft | 486 kts | 17° |
| 2026-05-06 20:01 | -26.81607 | 118.95556 | 37337 ft | 487 kts | 17° |
| 2026-05-06 20:02 | -26.75261 | 118.98255 | 37334 ft | 487 kts | 17° |
| 2026-05-06 20:02 | -26.68908 | 119.00952 | 37326 ft | 488 kts | 17° |
| 2026-05-06 20:03 | -26.63621 | 119.03196 | 37325 ft | 488 kts | 17° |
| 2026-05-06 20:03 | -26.57267 | 119.05891 | 37321 ft | 488 kts | 17° |
| 2026-05-06 20:04 | -26.50908 | 119.08585 | 37331 ft | 489 kts | 17° |
| 2026-05-06 20:04 | -26.44550 | 119.11275 | 37324 ft | 489 kts | 17° |
| 2026-05-06 20:05 | -26.38182 | 119.13967 | 37318 ft | 489 kts | 17° |
| 2026-05-06 20:05 | -26.31820 | 119.16652 | 37295 ft | 490 kts | 16° |
| 2026-05-06 20:06 | -26.25443 | 119.19341 | 37313 ft | 491 kts | 16° |
| 2026-05-06 20:06 | -26.19068 | 119.22026 | 37325 ft | 492 kts | 16° |
| 2026-05-06 20:07 | -26.12653 | 119.24724 | 37313 ft | 493 kts | 16° |
| 2026-05-06 20:07 | -26.06228 | 119.27423 | 37322 ft | 493 kts | 16° |
| 2026-05-06 20:08 | -25.99807 | 119.30119 | 37298 ft | 493 kts | 16° |
| 2026-05-06 20:08 | -25.93392 | 119.32808 | 37307 ft | 493 kts | 16° |
| 2026-05-06 20:09 | -25.86955 | 119.35503 | 37305 ft | 493 kts | 16° |
| 2026-05-06 20:09 | -25.80531 | 119.38190 | 37306 ft | 493 kts | 16° |
| 2026-05-06 20:10 | -25.74158 | 119.40852 | 37295 ft | 493 kts | 16° |
| 2026-05-06 20:10 | -25.67738 | 119.43530 | 37296 ft | 492 kts | 15° |
| 2026-05-06 20:11 | -25.61319 | 119.46205 | 37295 ft | 493 kts | 15° |
| 2026-05-06 20:11 | -25.54900 | 119.48877 | 37289 ft | 493 kts | 15° |
| 2026-05-06 20:12 | -25.48463 | 119.51554 | 37289 ft | 494 kts | 15° |
| 2026-05-06 20:12 | -25.42013 | 119.54233 | 37272 ft | 494 kts | 15° |
| 2026-05-06 20:13 | -25.35575 | 119.56903 | 37287 ft | 494 kts | 15° |
| 2026-05-06 20:13 | -25.29169 | 119.59558 | 37278 ft | 495 kts | 15° |
| 2026-05-06 20:14 | -25.22719 | 119.62228 | 37281 ft | 495 kts | 15° |
| 2026-05-06 20:14 | -25.16250 | 119.64903 | 37271 ft | 496 kts | 15° |
| 2026-05-06 20:15 | -25.09786 | 119.67573 | 37275 ft | 496 kts | 15° |
| 2026-05-06 20:15 | -25.03310 | 119.70244 | 37268 ft | 497 kts | 15° |
| 2026-05-06 20:16 | -24.96825 | 119.72918 | 37269 ft | 497 kts | 15° |
| 2026-05-06 20:16 | -24.90324 | 119.75593 | 37271 ft | 498 kts | 15° |
| 2026-05-06 20:17 | -24.83886 | 119.78233 | 37265 ft | 499 kts | 15° |
| 2026-05-06 20:17 | -24.77369 | 119.80902 | 37253 ft | 499 kts | 14° |
| 2026-05-06 20:18 | -24.70859 | 119.83567 | 37271 ft | 499 kts | 14° |
| 2026-05-06 20:18 | -24.64346 | 119.86231 | 37262 ft | 500 kts | 14° |
| 2026-05-06 20:19 | -24.57821 | 119.88897 | 37255 ft | 500 kts | 14° |
| 2026-05-06 20:19 | -24.51298 | 119.91559 | 37257 ft | 500 kts | 14° |
| 2026-05-06 20:20 | -24.44777 | 119.94217 | 37248 ft | 500 kts | 14° |
| 2026-05-06 20:20 | -24.38248 | 119.96876 | 37248 ft | 500 kts | 14° |
| 2026-05-06 20:21 | -24.31729 | 119.99528 | 37249 ft | 499 kts | 14° |
| 2026-05-06 20:21 | -24.25249 | 120.02161 | 37247 ft | 499 kts | 14° |
| 2026-05-06 20:22 | -24.18738 | 120.04804 | 37234 ft | 498 kts | 14° |
| 2026-05-06 20:22 | -24.12236 | 120.07440 | 37246 ft | 498 kts | 14° |
| 2026-05-06 20:23 | -24.05731 | 120.10073 | 37236 ft | 498 kts | 14° |
| 2026-05-06 20:23 | -23.99216 | 120.12708 | 37229 ft | 498 kts | 14° |
| 2026-05-06 20:24 | -23.92711 | 120.15338 | 37203 ft | 498 kts | 13° |
| 2026-05-06 20:24 | -23.86235 | 120.17953 | 37218 ft | 498 kts | 13° |
| 2026-05-06 20:25 | -23.79727 | 120.20577 | 37225 ft | 498 kts | 13° |
| 2026-05-06 20:25 | -23.73215 | 120.23200 | 37216 ft | 499 kts | 13° |
| 2026-05-06 20:26 | -23.66694 | 120.25825 | 37216 ft | 499 kts | 13° |
| 2026-05-06 20:26 | -23.60208 | 120.28433 | 37191 ft | 499 kts | 13° |
| 2026-05-06 20:27 | -23.53720 | 120.31165 | 37206 ft | 501 kts | 15° |
| 2026-05-06 20:27 | -23.47268 | 120.34101 | 37207 ft | 503 kts | 16° |
| 2026-05-06 20:28 | -23.40810 | 120.37051 | 37204 ft | 503 kts | 15° |
| 2026-05-06 20:28 | -23.34334 | 120.39972 | 37216 ft | 503 kts | 15° |
| 2026-05-06 20:29 | -23.27853 | 120.42873 | 37195 ft | 503 kts | 15° |
| 2026-05-06 20:29 | -23.21366 | 120.45769 | 37186 ft | 503 kts | 15° |
| 2026-05-06 20:30 | -23.11680 | 120.50090 | 37187 ft | 503 kts | 15° |
| 2026-05-06 20:31 | -23.05185 | 120.52985 | 37188 ft | 504 kts | 15° |
| 2026-05-06 20:31 | -22.98692 | 120.55877 | 37175 ft | 503 kts | 14° |
| 2026-05-06 20:32 | -22.92202 | 120.58764 | 37180 ft | 503 kts | 14° |
| 2026-05-06 20:32 | -22.85714 | 120.61647 | 37178 ft | 504 kts | 14° |
| 2026-05-06 20:33 | -22.79268 | 120.64508 | 37183 ft | 504 kts | 14° |
| 2026-05-06 20:33 | -22.72772 | 120.67388 | 37177 ft | 504 kts | 14° |
| 2026-05-06 20:34 | -22.66274 | 120.70268 | 37176 ft | 504 kts | 14° |
| 2026-05-06 20:34 | -22.59777 | 120.73142 | 37172 ft | 505 kts | 14° |
| 2026-05-06 20:35 | -22.53267 | 120.76020 | 37178 ft | 506 kts | 14° |
| 2026-05-06 20:35 | -22.46740 | 120.78902 | 37169 ft | 506 kts | 14° |
| 2026-05-06 20:36 | -22.40203 | 120.81786 | 37135 ft | 507 kts | 14° |
| 2026-05-06 20:36 | -22.33665 | 120.84669 | 37159 ft | 507 kts | 14° |
| 2026-05-06 20:37 | -22.27127 | 120.87547 | 37164 ft | 508 kts | 14° |
| 2026-05-06 20:37 | -22.20574 | 120.90429 | 37159 ft | 509 kts | 14° |
| 2026-05-06 20:38 | -22.14009 | 120.93314 | 37155 ft | 509 kts | 14° |
| 2026-05-06 20:38 | -22.07449 | 120.96194 | 37126 ft | 509 kts | 14° |
| 2026-05-06 20:39 | -22.00929 | 120.99054 | 37136 ft | 508 kts | 14° |
| 2026-05-06 20:39 | -21.94381 | 121.01923 | 37140 ft | 507 kts | 14° |
| 2026-05-06 20:40 | -21.87829 | 121.04791 | 37135 ft | 507 kts | 14° |
| 2026-05-06 20:40 | -21.81311 | 121.07640 | 37137 ft | 506 kts | 14° |
| 2026-05-06 20:41 | -21.74771 | 121.10497 | 37107 ft | 505 kts | 14° |
| 2026-05-06 20:41 | -21.68270 | 121.13335 | 37126 ft | 504 kts | 14° |
| 2026-05-06 20:42 | -21.61764 | 121.16171 | 37135 ft | 503 kts | 14° |
| 2026-05-06 20:42 | -21.55266 | 121.19000 | 37133 ft | 503 kts | 14° |
| 2026-05-06 20:43 | -21.48769 | 121.21827 | 37125 ft | 503 kts | 14° |
| 2026-05-06 20:43 | -21.42317 | 121.24632 | 37137 ft | 503 kts | 13° |
| 2026-05-06 20:44 | -21.35825 | 121.27455 | 37120 ft | 504 kts | 14° |
| 2026-05-06 20:44 | -21.29345 | 121.30334 | 37123 ft | 504 kts | 14° |
| 2026-05-06 20:45 | -21.23923 | 121.32764 | 37116 ft | 504 kts | 14° |
| 2026-05-06 20:45 | -21.17443 | 121.35663 | 37114 ft | 503 kts | 14° |
| 2026-05-06 20:46 | -21.11021 | 121.38525 | 37107 ft | 502 kts | 14° |
| 2026-05-06 20:46 | -21.04567 | 121.41396 | 37107 ft | 502 kts | 14° |
| 2026-05-06 20:47 | -20.98109 | 121.44264 | 37107 ft | 502 kts | 14° |
| 2026-05-06 20:47 | -20.91657 | 121.47128 | 37103 ft | 502 kts | 14° |
| 2026-05-06 20:48 | -20.85197 | 121.49994 | 37097 ft | 502 kts | 14° |
| 2026-05-06 20:48 | -20.78736 | 121.52857 | 37098 ft | 502 kts | 14° |
| 2026-05-06 20:49 | -20.72275 | 121.55718 | 37100 ft | 502 kts | 14° |
| 2026-05-06 20:49 | -20.65823 | 121.58572 | 37091 ft | 502 kts | 14° |
| 2026-05-06 20:50 | -20.59414 | 121.61404 | 37090 ft | 502 kts | 14° |
| 2026-05-06 20:50 | -20.52930 | 121.64267 | 37054 ft | 502 kts | 14° |
| 2026-05-06 20:51 | -20.46472 | 121.67117 | 37082 ft | 502 kts | 14° |
| 2026-05-06 20:51 | -20.40017 | 121.69961 | 37083 ft | 502 kts | 14° |
| 2026-05-06 20:52 | -20.33553 | 121.72807 | 37086 ft | 502 kts | 14° |
| 2026-05-06 20:52 | -20.27066 | 121.75659 | 36549 ft | 507 kts | 14° |
| 2026-05-06 20:52 | -20.23818 | 121.77089 | 36054 ft | 503 kts | 14° |
| 2026-05-06 20:53 | -20.20600 | 121.78507 | 35622 ft | 498 kts | 13° |
| 2026-05-06 20:53 | -20.17390 | 121.79920 | 35236 ft | 494 kts | 13° |
| 2026-05-06 20:53 | -20.14228 | 121.81309 | 34844 ft | 489 kts | 13° |
| 2026-05-06 20:53 | -20.11098 | 121.82682 | 34500 ft | 484 kts | 13° |
| 2026-05-06 20:54 | -20.08008 | 121.84037 | 34169 ft | 479 kts | 13° |
| 2026-05-06 20:54 | -20.04931 | 121.85385 | 33751 ft | 475 kts | 13° |
| 2026-05-06 20:54 | -20.01886 | 121.86717 | 33324 ft | 471 kts | 13° |
| 2026-05-06 20:54 | -19.98855 | 121.88042 | 32922 ft | 467 kts | 13° |
| 2026-05-06 20:55 | -19.95857 | 121.89351 | 32529 ft | 463 kts | 13° |
| 2026-05-06 20:55 | -19.92924 | 121.90633 | 32149 ft | 459 kts | 13° |
| 2026-05-06 20:55 | -19.89947 | 121.91933 | 31724 ft | 455 kts | 13° |
| 2026-05-06 20:55 | -19.87052 | 121.93197 | 31364 ft | 452 kts | 13° |
| 2026-05-06 20:56 | -19.84151 | 121.94463 | 30996 ft | 448 kts | 13° |
| 2026-05-06 20:56 | -19.81274 | 121.95717 | 30643 ft | 444 kts | 13° |
| 2026-05-06 20:56 | -19.78421 | 121.96961 | 30283 ft | 441 kts | 13° |
| 2026-05-06 20:56 | -19.75588 | 121.98195 | 29865 ft | 438 kts | 13° |
| 2026-05-06 20:57 | -19.72768 | 121.99424 | 29442 ft | 434 kts | 14° |
| 2026-05-06 20:57 | -19.69979 | 122.00639 | 29036 ft | 430 kts | 14° |
| 2026-05-06 20:57 | -19.67257 | 122.01825 | 28668 ft | 425 kts | 14° |
| 2026-05-06 20:57 | -19.64531 | 122.03012 | 28279 ft | 421 kts | 14° |
| 2026-05-06 20:58 | -19.61822 | 122.04191 | 27900 ft | 417 kts | 14° |
| 2026-05-06 20:58 | -19.59142 | 122.05356 | 27514 ft | 413 kts | 14° |
| 2026-05-06 20:58 | -19.56490 | 122.06509 | 27153 ft | 409 kts | 14° |
| 2026-05-06 20:58 | -19.53865 | 122.07649 | 26797 ft | 406 kts | 14° |
| 2026-05-06 20:59 | -19.51252 | 122.08784 | 26439 ft | 402 kts | 14° |
| 2026-05-06 20:59 | -19.48675 | 122.09903 | 26086 ft | 399 kts | 14° |
| 2026-05-06 20:59 | -19.46112 | 122.11015 | 25723 ft | 396 kts | 15° |
| 2026-05-06 20:59 | -19.43594 | 122.12108 | 25387 ft | 393 kts | 15° |
| 2026-05-06 21:00 | -19.41069 | 122.13202 | 25039 ft | 391 kts | 15° |
| 2026-05-06 21:00 | -19.38559 | 122.14290 | 24690 ft | 388 kts | 15° |
| 2026-05-06 21:00 | -19.36063 | 122.15372 | 24340 ft | 386 kts | 15° |
| 2026-05-06 21:00 | -19.33587 | 122.16444 | 23991 ft | 384 kts | 16° |
| 2026-05-06 21:01 | -19.31117 | 122.17514 | 23638 ft | 382 kts | 16° |
| 2026-05-06 21:01 | -19.28661 | 122.18579 | 23233 ft | 380 kts | 16° |
| 2026-05-06 21:01 | -19.26217 | 122.19637 | 22839 ft | 377 kts | 16° |
| 2026-05-06 21:01 | -19.23806 | 122.20682 | 22484 ft | 373 kts | 16° |
| 2026-05-06 21:02 | -19.21411 | 122.21719 | 22153 ft | 369 kts | 16° |
| 2026-05-06 21:02 | -19.19044 | 122.22743 | 21815 ft | 366 kts | 16° |
| 2026-05-06 21:02 | -19.16698 | 122.23758 | 21476 ft | 363 kts | 17° |
| 2026-05-06 21:02 | -19.14373 | 122.24763 | 21140 ft | 360 kts | 17° |
| 2026-05-06 21:03 | -19.12092 | 122.25749 | 20825 ft | 357 kts | 17° |
| 2026-05-06 21:03 | -19.09802 | 122.26738 | 20494 ft | 354 kts | 17° |
| 2026-05-06 21:03 | -19.07532 | 122.27719 | 20174 ft | 351 kts | 17° |
| 2026-05-06 21:03 | -19.05252 | 122.28703 | 19851 ft | 349 kts | 17° |
| 2026-05-06 21:04 | -19.03014 | 122.29669 | 19530 ft | 346 kts | 17° |
| 2026-05-06 21:04 | -19.00813 | 122.30619 | 19215 ft | 344 kts | 18° |
| 2026-05-06 21:04 | -18.98603 | 122.31573 | 18888 ft | 342 kts | 18° |
| 2026-05-06 21:04 | -18.96394 | 122.32478 | 18553 ft | 338 kts | 11° |
| 2026-05-06 21:05 | -18.94107 | 122.32790 | 18243 ft | 326 kts | 353° |
| 2026-05-06 21:05 | -18.91919 | 122.32431 | 18036 ft | 313 kts | 340° |
| 2026-05-06 21:05 | -18.89852 | 122.31759 | 17731 ft | 310 kts | 337° |
| 2026-05-06 21:05 | -18.87805 | 122.31032 | 17414 ft | 311 kts | 337° |
| 2026-05-06 21:06 | -18.85744 | 122.30288 | 17107 ft | 315 kts | 337° |
| 2026-05-06 21:06 | -18.83639 | 122.29529 | 16781 ft | 323 kts | 337° |
| 2026-05-06 21:06 | -18.81501 | 122.28765 | 16436 ft | 324 kts | 338° |
| 2026-05-06 21:06 | -18.79370 | 122.28012 | 16097 ft | 322 kts | 338° |
| 2026-05-06 21:07 | -18.77251 | 122.27269 | 15764 ft | 319 kts | 338° |
| 2026-05-06 21:07 | -18.75149 | 122.26534 | 15440 ft | 317 kts | 338° |
| 2026-05-06 21:07 | -18.73084 | 122.25814 | 15119 ft | 314 kts | 338° |
| 2026-05-06 21:07 | -18.71014 | 122.25093 | 14799 ft | 312 kts | 338° |
| 2026-05-06 21:08 | -18.68956 | 122.24376 | 14481 ft | 311 kts | 339° |
| 2026-05-06 21:08 | -18.66907 | 122.23663 | 14161 ft | 309 kts | 339° |
| 2026-05-06 21:08 | -18.64872 | 122.22956 | 13841 ft | 307 kts | 339° |
| 2026-05-06 21:08 | -18.62846 | 122.22252 | 13494 ft | 305 kts | 339° |
| 2026-05-06 21:09 | -18.60836 | 122.21553 | 13140 ft | 303 kts | 339° |
| 2026-05-06 21:09 | -18.58837 | 122.20859 | 12827 ft | 301 kts | 339° |
| 2026-05-06 21:09 | -18.56852 | 122.20170 | 12511 ft | 299 kts | 339° |
| 2026-05-06 21:09 | -18.54905 | 122.19494 | 12202 ft | 296 kts | 340° |
| 2026-05-06 21:10 | -18.52953 | 122.18817 | 11899 ft | 294 kts | 340° |
| 2026-05-06 21:10 | -18.51016 | 122.18145 | 11586 ft | 292 kts | 340° |
| 2026-05-06 21:10 | -18.49085 | 122.17475 | 11291 ft | 290 kts | 340° |
| 2026-05-06 21:10 | -18.47170 | 122.16811 | 10976 ft | 288 kts | 340° |
| 2026-05-06 21:11 | -18.45268 | 122.16151 | 10675 ft | 287 kts | 340° |
| 2026-05-06 21:11 | -18.43377 | 122.15496 | 10383 ft | 285 kts | 340° |
| 2026-05-06 21:11 | -18.41519 | 122.14851 | 10255 ft | 277 kts | 341° |
| 2026-05-06 21:11 | -18.39712 | 122.14226 | 10123 ft | 269 kts | 340° |
| 2026-05-06 21:12 | -18.37953 | 122.13617 | 9977 ft | 263 kts | 340° |
| 2026-05-06 21:12 | -18.36214 | 122.13015 | 9695 ft | 262 kts | 340° |
| 2026-05-06 21:12 | -18.34482 | 122.12415 | 9420 ft | 261 kts | 340° |
| 2026-05-06 21:12 | -18.32762 | 122.11820 | 9162 ft | 259 kts | 340° |
| 2026-05-06 21:13 | -18.31048 | 122.11227 | 8894 ft | 259 kts | 340° |
| 2026-05-06 21:13 | -18.29354 | 122.10640 | 8611 ft | 258 kts | 341° |
| 2026-05-06 21:13 | -18.27643 | 122.10048 | 8335 ft | 257 kts | 341° |
| 2026-05-06 21:13 | -18.25939 | 122.09458 | 8080 ft | 256 kts | 341° |
| 2026-05-06 21:14 | -18.24262 | 122.08879 | 7811 ft | 257 kts | 341° |
| 2026-05-06 21:14 | -18.22539 | 122.08283 | 7558 ft | 264 kts | 341° |
| 2026-05-06 21:14 | -18.20763 | 122.07668 | 7265 ft | 273 kts | 341° |
| 2026-05-06 21:14 | -18.18949 | 122.07041 | 6963 ft | 274 kts | 341° |
| 2026-05-06 21:15 | -18.17143 | 122.06417 | 6696 ft | 273 kts | 341° |
| 2026-05-06 21:15 | -18.15357 | 122.05801 | 6403 ft | 273 kts | 341° |
| 2026-05-06 21:15 | -18.13557 | 122.05179 | 6108 ft | 272 kts | 342° |
| 2026-05-06 21:15 | -18.11757 | 122.04557 | 5821 ft | 271 kts | 342° |
| 2026-05-06 21:16 | -18.09967 | 122.03939 | 5539 ft | 270 kts | 342° |
| 2026-05-06 21:16 | -18.08188 | 122.03325 | 5281 ft | 268 kts | 342° |
| 2026-05-06 21:16 | -18.06419 | 122.02715 | 5027 ft | 267 kts | 342° |
| 2026-05-06 21:16 | -18.04669 | 122.02111 | 4886 ft | 260 kts | 342° |
| 2026-05-06 21:17 | -18.02971 | 122.01525 | 4768 ft | 253 kts | 342° |
| 2026-05-06 21:17 | -18.01345 | 122.00964 | 4667 ft | 245 kts | 342° |
| 2026-05-06 21:17 | -17.99743 | 122.00411 | 4566 ft | 238 kts | 342° |
| 2026-05-06 21:17 | -17.98184 | 121.99876 | 4480 ft | 235 kts | 344° |
| 2026-05-06 21:18 | -17.96573 | 121.99797 | 4255 ft | 233 kts | 21° |
| 2026-05-06 21:18 | -17.95170 | 122.00584 | 4078 ft | 228 kts | 38° |
| 2026-05-06 21:18 | -17.93883 | 122.01552 | 3841 ft | 228 kts | 37° |
| 2026-05-06 21:18 | -17.92593 | 122.02526 | 3602 ft | 227 kts | 38° |
| 2026-05-06 21:19 | -17.91333 | 122.03519 | 3360 ft | 225 kts | 46° |
| 2026-05-06 21:19 | -17.90610 | 122.04921 | 3096 ft | 220 kts | 85° |
| 2026-05-06 21:19 | -17.90766 | 122.06499 | 2896 ft | 217 kts | 98° |
| 2026-05-06 21:19 | -17.91033 | 122.08038 | 2704 ft | 211 kts | 101° |
| 2026-05-06 21:20 | -17.91392 | 122.09491 | 2446 ft | 205 kts | 103° |
| 2026-05-06 21:20 | -17.91648 | 122.10451 | 2264 ft | 196 kts | 103° |
| 2026-05-06 21:20 | -17.92107 | 122.12187 | 1942 ft | 175 kts | 103° |
| 2026-05-06 21:20 | -17.92413 | 122.13352 | 1701 ft | 157 kts | 103° |
| 2026-05-06 21:21 | -17.92689 | 122.14406 | 1504 ft | 145 kts | 101° |
| 2026-05-06 21:21 | -17.92951 | 122.15411 | 1322 ft | 142 kts | 103° |
| 2026-05-06 21:21 | -17.93219 | 122.16433 | 1138 ft | 146 kts | 103° |
| 2026-05-06 21:21 | -17.93399 | 122.17118 | 1009 ft | 146 kts | 103° |
| 2026-05-06 21:22 | -17.93665 | 122.18134 | 809 ft | 142 kts | 104° |
| 2026-05-06 21:22 | -17.94019 | 122.19479 | 566 ft | 149 kts | 104° |
| 2026-05-06 21:22 | -17.94205 | 122.20187 | 449 ft | 149 kts | 104° |
| 2026-05-06 21:22 | -17.94489 | 122.21277 | 207 ft | 156 kts | 104° |
| 2026-05-06 21:23 | -17.94768 | 122.22346 | 54 ft | 145 kts | 104° |
| 2026-05-06 21:23 | -17.94992 | 122.23178 | 37 ft | 79 kts | 105° |
| 2026-05-06 21:23 | -17.95055 | 122.23416 | 33 ft | 13 kts | 105° |
| 2026-05-06 21:23 | -17.95129 | 122.23463 | 35 ft | 13 kts | 194° |
| 2026-05-06 21:24 | -17.95158 | 122.23455 | 36 ft | 2 kts | 194° |
| 2026-05-06 21:24 | -17.95176 | 122.23446 | 36 ft | 9 kts | 224° |
| 2026-05-06 21:24 | -17.95177 | 122.23360 | 36 ft | 13 kts | 275° |
| 2026-05-06 21:24 | -17.95199 | 122.23304 | 36 ft | 0 kts | 220° |
| 2026-05-06 21:25 | -17.95201 | 122.23302 | 35 ft | 1 kts | 217° |
| 2026-05-06 21:25 | -17.95223 | 122.23294 | 36 ft | 2 kts | 189° |
| 2026-05-06 21:25 | -17.95233 | 122.23300 | 35 ft | 2 kts | 131° |
| 2026-05-06 21:25 | -17.95230 | 122.23316 | 36 ft | 3 kts | 64° |
| 2026-05-06 21:26 | -17.95221 | 122.23337 | 35 ft | 4 kts | 64° |
| 2026-05-06 21:26 | -17.95217 | 122.23344 | 36 ft | 0 kts | 64° |